sensor_id;sensor_type;location;lat;lon;timestamp;temperature;humidity
86361;SHT31;77015;51.686;4.210;2024-03-08T00:02:00;5.62;77.71
86361;SHT31;77015;51.686;4.210;2024-03-08T00:04:25;5.63;77.60
86361;SHT31;77015;51.686;4.210;2024-03-08T00:06:51;5.67;77.46
86361;SHT31;77015;51.686;4.210;2024-03-08T00:09:16;5.63;77.52
86361;SHT31;77015;51.686;4.210;2024-03-08T00:11:42;5.60;77.63
86361;SHT31;77015;51.686;4.210;2024-03-08T00:14:07;5.60;77.74
86361;SHT31;77015;51.686;4.210;2024-03-08T00:16:33;5.55;77.87
86361;SHT31;77015;51.686;4.210;2024-03-08T00:18:59;5.56;77.64
86361;SHT31;77015;51.686;4.210;2024-03-08T00:21:25;5.55;77.69
86361;SHT31;77015;51.686;4.210;2024-03-08T00:23:52;5.51;77.73
86361;SHT31;77015;51.686;4.210;2024-03-08T00:26:19;5.45;77.71
86361;SHT31;77015;51.686;4.210;2024-03-08T00:28:45;5.41;77.92
86361;SHT31;77015;51.686;4.210;2024-03-08T00:31:10;5.36;77.98
86361;SHT31;77015;51.686;4.210;2024-03-08T00:33:36;5.36;77.82
86361;SHT31;77015;51.686;4.210;2024-03-08T00:36:02;5.39;77.79
86361;SHT31;77015;51.686;4.210;2024-03-08T00:38:27;5.38;77.66
86361;SHT31;77015;51.686;4.210;2024-03-08T00:40:53;5.34;77.80
86361;SHT31;77015;51.686;4.210;2024-03-08T00:43:18;5.36;77.83
86361;SHT31;77015;51.686;4.210;2024-03-08T00:45:44;5.34;77.83
86361;SHT31;77015;51.686;4.210;2024-03-08T00:48:09;5.25;77.86
86361;SHT31;77015;51.686;4.210;2024-03-08T00:50:36;5.27;77.79
86361;SHT31;77015;51.686;4.210;2024-03-08T00:53:02;5.24;77.70
86361;SHT31;77015;51.686;4.210;2024-03-08T00:55:27;5.30;77.49
86361;SHT31;77015;51.686;4.210;2024-03-08T00:57:54;5.30;77.42
86361;SHT31;77015;51.686;4.210;2024-03-08T01:00:20;5.32;77.36
86361;SHT31;77015;51.686;4.210;2024-03-08T01:02:46;5.31;77.03
86361;SHT31;77015;51.686;4.210;2024-03-08T01:05:12;5.28;76.85
86361;SHT31;77015;51.686;4.210;2024-03-08T01:07:37;5.30;76.80
86361;SHT31;77015;51.686;4.210;2024-03-08T01:10:03;5.24;76.73
86361;SHT31;77015;51.686;4.210;2024-03-08T01:12:29;5.24;76.71
86361;SHT31;77015;51.686;4.210;2024-03-08T01:14:55;5.24;76.74
86361;SHT31;77015;51.686;4.210;2024-03-08T01:17:21;5.20;77.02
86361;SHT31;77015;51.686;4.210;2024-03-08T01:19:47;5.21;76.83
86361;SHT31;77015;51.686;4.210;2024-03-08T01:22:12;5.15;76.65
86361;SHT31;77015;51.686;4.210;2024-03-08T01:24:38;5.21;76.44
86361;SHT31;77015;51.686;4.210;2024-03-08T01:27:04;5.21;76.37
86361;SHT31;77015;51.686;4.210;2024-03-08T01:29:29;5.17;76.13
86361;SHT31;77015;51.686;4.210;2024-03-08T01:31:55;5.17;76.29
86361;SHT31;77015;51.686;4.210;2024-03-08T01:34:24;5.14;76.35
86361;SHT31;77015;51.686;4.210;2024-03-08T01:36:49;5.10;76.40
86361;SHT31;77015;51.686;4.210;2024-03-08T01:39:15;5.08;76.13
86361;SHT31;77015;51.686;4.210;2024-03-08T01:41:40;5.08;76.19
86361;SHT31;77015;51.686;4.210;2024-03-08T01:44:06;5.08;75.75
86361;SHT31;77015;51.686;4.210;2024-03-08T01:46:33;5.07;76.01
86361;SHT31;77015;51.686;4.210;2024-03-08T01:49:00;5.01;75.86
86361;SHT31;77015;51.686;4.210;2024-03-08T01:51:27;5.01;75.84
86361;SHT31;77015;51.686;4.210;2024-03-08T01:53:56;5.00;75.77
86361;SHT31;77015;51.686;4.210;2024-03-08T01:56:23;4.94;75.99
86361;SHT31;77015;51.686;4.210;2024-03-08T01:58:50;4.94;75.95
86361;SHT31;77015;51.686;4.210;2024-03-08T02:01:16;4.90;75.92
86361;SHT31;77015;51.686;4.210;2024-03-08T02:03:44;4.93;75.68
86361;SHT31;77015;51.686;4.210;2024-03-08T02:06:13;4.90;75.66
86361;SHT31;77015;51.686;4.210;2024-03-08T02:08:46;4.93;75.53
86361;SHT31;77015;51.686;4.210;2024-03-08T02:11:12;4.94;75.54
86361;SHT31;77015;51.686;4.210;2024-03-08T02:13:38;4.98;75.36
86361;SHT31;77015;51.686;4.210;2024-03-08T02:16:04;4.97;75.31
86361;SHT31;77015;51.686;4.210;2024-03-08T02:18:33;4.93;75.34
86361;SHT31;77015;51.686;4.210;2024-03-08T02:21:03;4.97;75.17
86361;SHT31;77015;51.686;4.210;2024-03-08T02:23:29;4.88;75.35
86361;SHT31;77015;51.686;4.210;2024-03-08T02:25:56;4.84;75.26
86361;SHT31;77015;51.686;4.210;2024-03-08T02:28:23;4.88;75.42
86361;SHT31;77015;51.686;4.210;2024-03-08T02:30:51;4.83;75.34
86361;SHT31;77015;51.686;4.210;2024-03-08T02:33:17;4.77;75.53
86361;SHT31;77015;51.686;4.210;2024-03-08T02:35:47;4.73;75.45
86361;SHT31;77015;51.686;4.210;2024-03-08T02:38:17;4.74;75.51
86361;SHT31;77015;51.686;4.210;2024-03-08T02:40:49;4.73;75.37
86361;SHT31;77015;51.686;4.210;2024-03-08T02:43:17;4.69;75.45
86361;SHT31;77015;51.686;4.210;2024-03-08T02:45:46;4.70;75.37
86361;SHT31;77015;51.686;4.210;2024-03-08T02:48:13;4.70;75.26
86361;SHT31;77015;51.686;4.210;2024-03-08T02:50:39;4.69;75.36
86361;SHT31;77015;51.686;4.210;2024-03-08T02:53:05;4.66;75.22
86361;SHT31;77015;51.686;4.210;2024-03-08T02:55:31;4.65;75.51
86361;SHT31;77015;51.686;4.210;2024-03-08T02:57:58;4.59;75.54
86361;SHT31;77015;51.686;4.210;2024-03-08T03:00:24;4.57;75.64
86361;SHT31;77015;51.686;4.210;2024-03-08T03:02:50;4.53;75.63
86361;SHT31;77015;51.686;4.210;2024-03-08T03:05:23;4.56;75.48
86361;SHT31;77015;51.686;4.210;2024-03-08T03:07:50;4.52;75.48
86361;SHT31;77015;51.686;4.210;2024-03-08T03:10:19;4.46;75.45
86361;SHT31;77015;51.686;4.210;2024-03-08T03:12:45;4.46;75.63
86361;SHT31;77015;51.686;4.210;2024-03-08T03:15:12;4.45;75.66
86361;SHT31;77015;51.686;4.210;2024-03-08T03:17:41;4.44;75.69
86361;SHT31;77015;51.686;4.210;2024-03-08T03:20:11;4.41;75.74
86361;SHT31;77015;51.686;4.210;2024-03-08T03:22:40;4.44;75.72
86361;SHT31;77015;51.686;4.210;2024-03-08T03:25:07;4.45;75.28
86361;SHT31;77015;51.686;4.210;2024-03-08T03:27:35;4.44;75.27
86361;SHT31;77015;51.686;4.210;2024-03-08T03:30:00;4.39;75.46
86361;SHT31;77015;51.686;4.210;2024-03-08T03:32:46;4.41;75.71
86361;SHT31;77015;51.686;4.210;2024-03-08T03:35:15;4.35;75.77
86361;SHT31;77015;51.686;4.210;2024-03-08T03:37:41;4.32;75.74
86361;SHT31;77015;51.686;4.210;2024-03-08T03:40:09;4.29;75.83
86361;SHT31;77015;51.686;4.210;2024-03-08T03:42:34;4.29;75.78
86361;SHT31;77015;51.686;4.210;2024-03-08T03:45:00;4.24;75.95
86361;SHT31;77015;51.686;4.210;2024-03-08T03:47:25;4.26;75.86
86361;SHT31;77015;51.686;4.210;2024-03-08T03:49:52;4.22;75.69
86361;SHT31;77015;51.686;4.210;2024-03-08T03:52:19;4.22;75.41
86361;SHT31;77015;51.686;4.210;2024-03-08T03:54:44;4.19;75.11
86361;SHT31;77015;51.686;4.210;2024-03-08T03:57:10;4.22;75.11
86361;SHT31;77015;51.686;4.210;2024-03-08T03:59:36;4.21;75.09
86361;SHT31;77015;51.686;4.210;2024-03-08T04:02:02;4.16;75.20
86361;SHT31;77015;51.686;4.210;2024-03-08T04:04:29;4.15;74.80
86361;SHT31;77015;51.686;4.210;2024-03-08T04:06:54;4.12;74.30
86361;SHT31;77015;51.686;4.210;2024-03-08T04:09:20;4.16;73.94
86361;SHT31;77015;51.686;4.210;2024-03-08T04:11:48;4.16;73.93
86361;SHT31;77015;51.686;4.210;2024-03-08T04:14:14;4.12;73.75
86361;SHT31;77015;51.686;4.210;2024-03-08T04:16:39;4.14;73.66
86361;SHT31;77015;51.686;4.210;2024-03-08T04:19:05;4.09;73.50
86361;SHT31;77015;51.686;4.210;2024-03-08T04:21:30;4.02;73.26
86361;SHT31;77015;51.686;4.210;2024-03-08T04:23:56;4.05;73.33
86361;SHT31;77015;51.686;4.210;2024-03-08T04:26:22;4.04;73.25
86361;SHT31;77015;51.686;4.210;2024-03-08T04:28:47;4.01;73.25
86361;SHT31;77015;51.686;4.210;2024-03-08T04:31:13;4.05;73.40
86361;SHT31;77015;51.686;4.210;2024-03-08T04:33:38;4.02;73.28
86361;SHT31;77015;51.686;4.210;2024-03-08T04:36:04;3.98;73.38
86361;SHT31;77015;51.686;4.210;2024-03-08T04:38:30;3.99;73.69
86361;SHT31;77015;51.686;4.210;2024-03-08T04:40:57;3.93;73.31
86361;SHT31;77015;51.686;4.210;2024-03-08T04:43:24;3.95;73.41
86361;SHT31;77015;51.686;4.210;2024-03-08T04:45:55;3.93;73.32
86361;SHT31;77015;51.686;4.210;2024-03-08T04:48:21;3.88;73.41
86361;SHT31;77015;51.686;4.210;2024-03-08T04:50:46;3.80;73.85
86361;SHT31;77015;51.686;4.210;2024-03-08T04:53:12;3.77;73.16
86361;SHT31;77015;51.686;4.210;2024-03-08T04:55:37;3.78;73.45
86361;SHT31;77015;51.686;4.210;2024-03-08T04:58:03;3.77;73.44
86361;SHT31;77015;51.686;4.210;2024-03-08T05:00:31;3.71;73.58
86361;SHT31;77015;51.686;4.210;2024-03-08T05:02:57;3.70;73.72
86361;SHT31;77015;51.686;4.210;2024-03-08T05:05:23;3.64;73.89
86361;SHT31;77015;51.686;4.210;2024-03-08T05:07:48;3.64;73.51
86361;SHT31;77015;51.686;4.210;2024-03-08T05:10:14;3.63;73.57
86361;SHT31;77015;51.686;4.210;2024-03-08T05:12:43;3.62;73.77
86361;SHT31;77015;51.686;4.210;2024-03-08T05:15:09;3.57;73.83
86361;SHT31;77015;51.686;4.210;2024-03-08T05:17:34;3.57;73.78
86361;SHT31;77015;51.686;4.210;2024-03-08T05:20:00;3.59;73.82
86361;SHT31;77015;51.686;4.210;2024-03-08T05:22:25;3.62;73.83
86361;SHT31;77015;51.686;4.210;2024-03-08T05:24:51;3.63;73.88
86361;SHT31;77015;51.686;4.210;2024-03-08T05:27:17;3.63;73.82
86361;SHT31;77015;51.686;4.210;2024-03-08T05:29:42;3.56;73.89
86361;SHT31;77015;51.686;4.210;2024-03-08T05:32:08;3.57;73.82
86361;SHT31;77015;51.686;4.210;2024-03-08T05:34:35;3.60;73.90
86361;SHT31;77015;51.686;4.210;2024-03-08T05:37:01;3.64;74.12
86361;SHT31;77015;51.686;4.210;2024-03-08T05:39:27;3.56;73.91
86361;SHT31;77015;51.686;4.210;2024-03-08T05:41:52;3.60;73.91
86361;SHT31;77015;51.686;4.210;2024-03-08T05:44:20;3.56;74.00
86361;SHT31;77015;51.686;4.210;2024-03-08T05:46:46;3.53;74.12
86361;SHT31;77015;51.686;4.210;2024-03-08T05:49:11;3.49;73.80
86361;SHT31;77015;51.686;4.210;2024-03-08T05:51:38;3.49;74.14
86361;SHT31;77015;51.686;4.210;2024-03-08T05:54:08;3.49;73.83
86361;SHT31;77015;51.686;4.210;2024-03-08T05:56:36;3.47;73.94
86361;SHT31;77015;51.686;4.210;2024-03-08T05:59:02;3.40;74.10
86361;SHT31;77015;51.686;4.210;2024-03-08T06:01:30;3.43;74.02
86361;SHT31;77015;51.686;4.210;2024-03-08T06:03:57;3.42;73.95
86361;SHT31;77015;51.686;4.210;2024-03-08T06:06:23;3.44;73.89
86361;SHT31;77015;51.686;4.210;2024-03-08T06:08:49;3.46;73.91
86361;SHT31;77015;51.686;4.210;2024-03-08T06:11:16;3.47;73.60
86361;SHT31;77015;51.686;4.210;2024-03-08T06:13:46;3.47;73.92
86361;SHT31;77015;51.686;4.210;2024-03-08T06:16:12;3.43;73.69
86361;SHT31;77015;51.686;4.210;2024-03-08T06:18:38;3.44;73.88
86361;SHT31;77015;51.686;4.210;2024-03-08T06:21:05;3.40;73.81
86361;SHT31;77015;51.686;4.210;2024-03-08T06:23:35;3.43;73.78
86361;SHT31;77015;51.686;4.210;2024-03-08T06:26:07;3.47;73.70
86361;SHT31;77015;51.686;4.210;2024-03-08T06:28:32;3.47;73.75
86361;SHT31;77015;51.686;4.210;2024-03-08T06:30:59;3.50;73.33
86361;SHT31;77015;51.686;4.210;2024-03-08T06:33:25;3.56;73.57
86361;SHT31;77015;51.686;4.210;2024-03-08T06:35:52;3.50;73.39
86361;SHT31;77015;51.686;4.210;2024-03-08T06:38:17;3.46;73.23
86361;SHT31;77015;51.686;4.210;2024-03-08T06:40:44;3.47;73.66
86361;SHT31;77015;51.686;4.210;2024-03-08T06:43:13;3.52;73.37
86361;SHT31;77015;51.686;4.210;2024-03-08T06:45:42;3.50;73.44
86361;SHT31;77015;51.686;4.210;2024-03-08T06:48:15;3.55;73.24
86361;SHT31;77015;51.686;4.210;2024-03-08T06:50:40;3.55;72.87
86361;SHT31;77015;51.686;4.210;2024-03-08T06:53:06;3.57;73.03
86361;SHT31;77015;51.686;4.210;2024-03-08T06:55:32;3.57;73.32
86361;SHT31;77015;51.686;4.210;2024-03-08T06:57:58;3.63;73.21
86361;SHT31;77015;51.686;4.210;2024-03-08T07:00:23;3.62;73.19
86361;SHT31;77015;51.686;4.210;2024-03-08T07:02:52;3.62;73.13
86361;SHT31;77015;51.686;4.210;2024-03-08T07:05:19;3.62;72.86
86361;SHT31;77015;51.686;4.210;2024-03-08T07:07:45;3.69;73.01
86361;SHT31;77015;51.686;4.210;2024-03-08T07:10:13;3.76;72.91
86361;SHT31;77015;51.686;4.210;2024-03-08T07:12:41;3.78;72.68
86361;SHT31;77015;51.686;4.210;2024-03-08T07:15:06;3.81;72.59
86361;SHT31;77015;51.686;4.210;2024-03-08T07:17:32;3.77;72.57
86361;SHT31;77015;51.686;4.210;2024-03-08T07:20:00;3.83;72.71
86361;SHT31;77015;51.686;4.210;2024-03-08T07:22:31;3.83;72.55
86361;SHT31;77015;51.686;4.210;2024-03-08T07:24:56;3.90;71.87
86361;SHT31;77015;51.686;4.210;2024-03-08T07:27:40;3.91;72.39
86361;SHT31;77015;51.686;4.210;2024-03-08T07:30:06;3.98;71.76
86361;SHT31;77015;51.686;4.210;2024-03-08T07:32:35;3.97;72.03
86361;SHT31;77015;51.686;4.210;2024-03-08T07:35:00;3.99;72.08
86361;SHT31;77015;51.686;4.210;2024-03-08T07:37:29;4.12;72.00
86361;SHT31;77015;51.686;4.210;2024-03-08T07:39:54;4.16;71.62
86361;SHT31;77015;51.686;4.210;2024-03-08T07:42:20;4.21;71.83
86361;SHT31;77015;51.686;4.210;2024-03-08T07:44:46;4.22;71.73
86361;SHT31;77015;51.686;4.210;2024-03-08T07:47:14;4.25;71.38
86361;SHT31;77015;51.686;4.210;2024-03-08T07:49:39;4.32;71.32
86361;SHT31;77015;51.686;4.210;2024-03-08T07:52:05;4.39;71.27
86361;SHT31;77015;51.686;4.210;2024-03-08T07:54:33;4.45;70.75
86361;SHT31;77015;51.686;4.210;2024-03-08T07:56:59;4.50;71.03
86361;SHT31;77015;51.686;4.210;2024-03-08T07:59:24;4.59;70.68
86361;SHT31;77015;51.686;4.210;2024-03-08T08:01:50;4.57;70.72
86361;SHT31;77015;51.686;4.210;2024-03-08T08:04:15;4.55;70.62
86361;SHT31;77015;51.686;4.210;2024-03-08T08:06:43;4.55;70.51
86361;SHT31;77015;51.686;4.210;2024-03-08T08:09:10;4.70;71.14
86361;SHT31;77015;51.686;4.210;2024-03-08T08:11:47;4.74;70.50
86361;SHT31;77015;51.686;4.210;2024-03-08T08:14:13;4.77;70.25
86361;SHT31;77015;51.686;4.210;2024-03-08T08:16:39;4.84;70.93
86361;SHT31;77015;51.686;4.210;2024-03-08T08:19:07;4.84;69.96
86361;SHT31;77015;51.686;4.210;2024-03-08T08:21:36;4.84;70.38
86361;SHT31;77015;51.686;4.210;2024-03-08T08:24:05;4.90;70.30
86361;SHT31;77015;51.686;4.210;2024-03-08T08:26:31;4.91;69.90
86361;SHT31;77015;51.686;4.210;2024-03-08T08:28:58;5.01;69.82
86361;SHT31;77015;51.686;4.210;2024-03-08T08:31:25;5.03;70.13
86361;SHT31;77015;51.686;4.210;2024-03-08T08:33:50;5.10;69.81
86361;SHT31;77015;51.686;4.210;2024-03-08T08:36:19;5.13;69.75
86361;SHT31;77015;51.686;4.210;2024-03-08T08:38:44;5.24;69.84
86361;SHT31;77015;51.686;4.210;2024-03-08T08:41:11;5.25;69.88
86361;SHT31;77015;51.686;4.210;2024-03-08T08:43:36;5.34;69.94
86361;SHT31;77015;51.686;4.210;2024-03-08T08:46:02;5.24;69.25
86361;SHT31;77015;51.686;4.210;2024-03-08T08:48:28;5.32;69.66
86361;SHT31;77015;51.686;4.210;2024-03-08T08:50:55;5.42;69.16
86361;SHT31;77015;51.686;4.210;2024-03-08T08:53:21;5.51;69.46
86361;SHT31;77015;51.686;4.210;2024-03-08T08:55:47;5.62;68.95
86361;SHT31;77015;51.686;4.210;2024-03-08T08:58:13;5.65;68.63
86361;SHT31;77015;51.686;4.210;2024-03-08T09:00:39;5.80;69.97
86361;SHT31;77015;51.686;4.210;2024-03-08T09:03:05;5.79;68.91
86361;SHT31;77015;51.686;4.210;2024-03-08T09:05:32;5.75;68.81
86361;SHT31;77015;51.686;4.210;2024-03-08T09:07:59;5.87;68.11
86361;SHT31;77015;51.686;4.210;2024-03-08T09:10:25;5.97;68.99
86361;SHT31;77015;51.686;4.210;2024-03-08T09:12:50;6.10;68.94
86361;SHT31;77015;51.686;4.210;2024-03-08T09:15:16;6.14;68.03
86361;SHT31;77015;51.686;4.210;2024-03-08T09:17:46;6.16;68.39
86361;SHT31;77015;51.686;4.210;2024-03-08T09:20:12;6.13;67.76
86361;SHT31;77015;51.686;4.210;2024-03-08T09:22:43;6.17;67.28
86361;SHT31;77015;51.686;4.210;2024-03-08T09:25:09;6.25;68.46
86361;SHT31;77015;51.686;4.210;2024-03-08T09:27:35;6.24;67.39
86361;SHT31;77015;51.686;4.210;2024-03-08T09:30:00;6.42;67.93
86361;SHT31;77015;51.686;4.210;2024-03-08T09:32:26;6.37;66.14
86361;SHT31;77015;51.686;4.210;2024-03-08T09:34:52;6.46;67.09
86361;SHT31;77015;51.686;4.210;2024-03-08T09:37:17;6.58;67.02
86361;SHT31;77015;51.686;4.210;2024-03-08T09:39:44;6.64;66.83
86361;SHT31;77015;51.686;4.210;2024-03-08T09:42:10;6.68;66.96
86361;SHT31;77015;51.686;4.210;2024-03-08T09:44:44;6.79;68.06
86361;SHT31;77015;51.686;4.210;2024-03-08T09:47:14;6.96;67.66
86361;SHT31;77015;51.686;4.210;2024-03-08T09:49:40;6.85;66.64
86361;SHT31;77015;51.686;4.210;2024-03-08T09:52:07;6.82;67.91
86361;SHT31;77015;51.686;4.210;2024-03-08T09:54:33;6.91;66.69
86361;SHT31;77015;51.686;4.210;2024-03-08T09:56:59;7.04;67.87
86361;SHT31;77015;51.686;4.210;2024-03-08T09:59:24;7.02;66.13
86361;SHT31;77015;51.686;4.210;2024-03-08T10:01:52;7.10;66.62
86361;SHT31;77015;51.686;4.210;2024-03-08T10:04:22;7.09;66.43
86361;SHT31;77015;51.686;4.210;2024-03-08T10:06:47;7.16;66.02
86361;SHT31;77015;51.686;4.210;2024-03-08T10:09:14;7.30;67.44
86361;SHT31;77015;51.686;4.210;2024-03-08T10:11:41;7.46;66.71
86361;SHT31;77015;51.686;4.210;2024-03-08T10:14:08;7.38;65.05
86361;SHT31;77015;51.686;4.210;2024-03-08T10:16:34;7.48;67.22
86361;SHT31;77015;51.686;4.210;2024-03-08T10:19:00;7.46;65.32
86361;SHT31;77015;51.686;4.210;2024-03-08T10:21:26;7.50;65.33
86361;SHT31;77015;51.686;4.210;2024-03-08T10:23:52;7.53;65.49
86361;SHT31;77015;51.686;4.210;2024-03-08T10:26:19;7.61;65.81
86361;SHT31;77015;51.686;4.210;2024-03-08T10:28:49;7.67;65.32
86361;SHT31;77015;51.686;4.210;2024-03-08T10:31:19;7.82;65.20
86361;SHT31;77015;51.686;4.210;2024-03-08T10:33:48;7.99;65.61
86361;SHT31;77015;51.686;4.210;2024-03-08T10:36:15;7.89;64.50
86361;SHT31;77015;51.686;4.210;2024-03-08T10:38:42;7.82;64.56
86361;SHT31;77015;51.686;4.210;2024-03-08T10:41:12;7.78;64.45
86361;SHT31;77015;51.686;4.210;2024-03-08T10:46:53;7.92;65.09
86361;SHT31;77015;51.686;4.210;2024-03-08T10:49:26;8.09;64.68
86361;SHT31;77015;51.686;4.210;2024-03-08T10:51:55;8.05;63.27
86361;SHT31;77015;51.686;4.210;2024-03-08T10:54:21;8.17;64.28
86361;SHT31;77015;51.686;4.210;2024-03-08T10:56:48;8.16;63.55
86361;SHT31;77015;51.686;4.210;2024-03-08T10:59:15;8.09;64.78
86361;SHT31;77015;51.686;4.210;2024-03-08T11:01:40;8.33;63.67
86361;SHT31;77015;51.686;4.210;2024-03-08T11:04:06;8.36;65.07
86361;SHT31;77015;51.686;4.210;2024-03-08T11:09:10;8.67;64.47
86361;SHT31;77015;51.686;4.210;2024-03-08T11:11:42;8.73;63.47
86361;SHT31;77015;51.686;4.210;2024-03-08T11:14:43;8.56;62.70
86361;SHT31;77015;51.686;4.210;2024-03-08T11:17:09;8.73;63.34
86361;SHT31;77015;51.686;4.210;2024-03-08T11:19:34;8.88;62.97
86361;SHT31;77015;51.686;4.210;2024-03-08T11:22:02;8.85;63.57
86361;SHT31;77015;51.686;4.210;2024-03-08T11:24:36;8.82;62.64
86361;SHT31;77015;51.686;4.210;2024-03-08T11:27:03;8.80;62.05
86361;SHT31;77015;51.686;4.210;2024-03-08T11:32:17;9.32;62.57
86361;SHT31;77015;51.686;4.210;2024-03-08T11:34:46;9.43;60.81
86361;SHT31;77015;51.686;4.210;2024-03-08T11:37:15;9.69;60.38
86361;SHT31;77015;51.686;4.210;2024-03-08T11:39:52;9.56;59.46
86361;SHT31;77015;51.686;4.210;2024-03-08T11:42:19;9.46;59.56
86361;SHT31;77015;51.686;4.210;2024-03-08T11:44:50;9.57;58.91
86361;SHT31;77015;51.686;4.210;2024-03-08T11:47:16;9.71;59.46
86361;SHT31;77015;51.686;4.210;2024-03-08T11:49:41;9.66;58.32
86361;SHT31;77015;51.686;4.210;2024-03-08T11:52:15;9.93;60.91
86361;SHT31;77015;51.686;4.210;2024-03-08T11:54:52;10.07;59.86
86361;SHT31;77015;51.686;4.210;2024-03-08T11:57:20;10.14;58.76
86361;SHT31;77015;51.686;4.210;2024-03-08T11:59:54;10.18;58.96
86361;SHT31;77015;51.686;4.210;2024-03-08T12:02:22;10.20;56.87
86361;SHT31;77015;51.686;4.210;2024-03-08T12:04:59;10.08;57.62
86361;SHT31;77015;51.686;4.210;2024-03-08T12:07:25;10.14;58.06
86361;SHT31;77015;51.686;4.210;2024-03-08T12:10:18;10.34;58.02
86361;SHT31;77015;51.686;4.210;2024-03-08T12:13:02;10.45;57.52
86361;SHT31;77015;51.686;4.210;2024-03-08T12:15:36;10.51;57.72
86361;SHT31;77015;51.686;4.210;2024-03-08T12:18:03;10.52;56.68
86361;SHT31;77015;51.686;4.210;2024-03-08T12:20:30;10.68;59.17
86361;SHT31;77015;51.686;4.210;2024-03-08T12:22:56;10.72;57.71
86361;SHT31;77015;51.686;4.210;2024-03-08T12:25:25;10.73;57.76
86361;SHT31;77015;51.686;4.210;2024-03-08T12:27:51;10.63;57.10
86361;SHT31;77015;51.686;4.210;2024-03-08T12:32:53;10.66;56.62
86361;SHT31;77015;51.686;4.210;2024-03-08T12:35:21;10.66;55.67
86361;SHT31;77015;51.686;4.210;2024-03-08T12:37:57;10.76;56.25
86361;SHT31;77015;51.686;4.210;2024-03-08T12:40:31;10.69;54.71
86361;SHT31;77015;51.686;4.210;2024-03-08T12:42:58;10.62;54.63
86361;SHT31;77015;51.686;4.210;2024-03-08T12:45:24;10.70;57.08
86361;SHT31;77015;51.686;4.210;2024-03-08T12:47:54;10.76;54.66
86361;SHT31;77015;51.686;4.210;2024-03-08T12:50:22;10.83;57.05
86361;SHT31;77015;51.686;4.210;2024-03-08T12:52:48;11.03;53.86
86361;SHT31;77015;51.686;4.210;2024-03-08T12:55:14;11.10;55.36
86361;SHT31;77015;51.686;4.210;2024-03-08T12:57:42;11.17;54.42
86361;SHT31;77015;51.686;4.210;2024-03-08T13:00:08;11.14;55.49
86361;SHT31;77015;51.686;4.210;2024-03-08T13:02:41;11.24;55.27
86361;SHT31;77015;51.686;4.210;2024-03-08T13:05:07;11.20;54.22
86361;SHT31;77015;51.686;4.210;2024-03-08T13:07:35;11.30;54.69
86361;SHT31;77015;51.686;4.210;2024-03-08T13:10:03;11.28;53.16
86361;SHT31;77015;51.686;4.210;2024-03-08T13:12:29;11.28;54.34
86361;SHT31;77015;51.686;4.210;2024-03-08T13:14:55;11.41;53.88
86361;SHT31;77015;51.686;4.210;2024-03-08T13:17:21;11.45;54.12
86361;SHT31;77015;51.686;4.210;2024-03-08T13:19:48;11.41;53.32
86361;SHT31;77015;51.686;4.210;2024-03-08T13:22:13;11.40;54.70
86361;SHT31;77015;51.686;4.210;2024-03-08T13:24:44;11.54;54.13
86361;SHT31;77015;51.686;4.210;2024-03-08T13:27:11;11.72;53.42
86361;SHT31;77015;51.686;4.210;2024-03-08T13:29:46;11.55;52.35
86361;SHT31;77015;51.686;4.210;2024-03-08T13:32:16;11.48;53.72
86361;SHT31;77015;51.686;4.210;2024-03-08T13:34:42;11.57;53.77
86361;SHT31;77015;51.686;4.210;2024-03-08T13:37:09;11.55;54.03
86361;SHT31;77015;51.686;4.210;2024-03-08T13:39:36;11.55;53.32
86361;SHT31;77015;51.686;4.210;2024-03-08T13:42:12;11.57;52.97
86361;SHT31;77015;51.686;4.210;2024-03-08T13:44:47;11.48;52.62
86361;SHT31;77015;51.686;4.210;2024-03-08T13:47:14;11.45;53.26
86361;SHT31;77015;51.686;4.210;2024-03-08T13:49:39;11.62;54.05
86361;SHT31;77015;51.686;4.210;2024-03-08T13:52:05;11.58;53.16
86361;SHT31;77015;51.686;4.210;2024-03-08T13:54:34;11.57;51.89
86361;SHT31;77015;51.686;4.210;2024-03-08T13:57:01;11.58;52.15
86361;SHT31;77015;51.686;4.210;2024-03-08T13:59:30;11.57;52.48
86361;SHT31;77015;51.686;4.210;2024-03-08T14:01:56;11.67;53.48
86361;SHT31;77015;51.686;4.210;2024-03-08T14:04:22;11.75;53.18
86361;SHT31;77015;51.686;4.210;2024-03-08T14:06:49;11.74;52.06
86361;SHT31;77015;51.686;4.210;2024-03-08T14:09:15;11.82;54.66
86361;SHT31;77015;51.686;4.210;2024-03-08T14:11:43;11.92;54.50
86361;SHT31;77015;51.686;4.210;2024-03-08T14:14:12;11.90;53.10
86361;SHT31;77015;51.686;4.210;2024-03-08T14:16:39;11.93;53.18
86361;SHT31;77015;51.686;4.210;2024-03-08T14:19:05;11.89;53.47
86361;SHT31;77015;51.686;4.210;2024-03-08T14:21:31;11.92;53.31
86361;SHT31;77015;51.686;4.210;2024-03-08T14:23:58;11.99;53.35
86361;SHT31;77015;51.686;4.210;2024-03-08T14:26:24;11.98;52.80
86361;SHT31;77015;51.686;4.210;2024-03-08T14:28:49;11.99;53.90
86361;SHT31;77015;51.686;4.210;2024-03-08T14:31:22;11.93;54.19
86361;SHT31;77015;51.686;4.210;2024-03-08T14:33:51;11.96;53.08
86361;SHT31;77015;51.686;4.210;2024-03-08T14:36:19;12.09;54.47
86361;SHT31;77015;51.686;4.210;2024-03-08T14:38:47;12.32;53.65
86361;SHT31;77015;51.686;4.210;2024-03-08T14:41:13;12.13;52.27
86361;SHT31;77015;51.686;4.210;2024-03-08T14:43:44;12.06;52.69
86361;SHT31;77015;51.686;4.210;2024-03-08T14:46:15;12.10;53.47
86361;SHT31;77015;51.686;4.210;2024-03-08T14:48:55;12.00;51.93
86361;SHT31;77015;51.686;4.210;2024-03-08T14:51:24;12.03;52.53
86361;SHT31;77015;51.686;4.210;2024-03-08T14:53:52;11.96;52.38
86361;SHT31;77015;51.686;4.210;2024-03-08T14:56:18;12.10;52.90
86361;SHT31;77015;51.686;4.210;2024-03-08T14:58:44;12.12;53.05
86361;SHT31;77015;51.686;4.210;2024-03-08T15:01:10;11.88;52.80
86361;SHT31;77015;51.686;4.210;2024-03-08T15:03:40;11.98;53.58
86361;SHT31;77015;51.686;4.210;2024-03-08T15:06:05;11.98;52.73
86361;SHT31;77015;51.686;4.210;2024-03-08T15:08:38;12.03;52.88
86361;SHT31;77015;51.686;4.210;2024-03-08T15:11:07;12.09;52.79
86361;SHT31;77015;51.686;4.210;2024-03-08T15:13:34;12.08;52.87
86361;SHT31;77015;51.686;4.210;2024-03-08T15:16:07;11.93;53.28
86361;SHT31;77015;51.686;4.210;2024-03-08T15:18:35;11.82;52.99
86361;SHT31;77015;51.686;4.210;2024-03-08T15:21:05;11.81;53.25
86361;SHT31;77015;51.686;4.210;2024-03-08T15:23:36;11.86;54.80
86361;SHT31;77015;51.686;4.210;2024-03-08T15:26:02;12.03;54.02
86361;SHT31;77015;51.686;4.210;2024-03-08T15:28:29;12.06;55.01
86361;SHT31;77015;51.686;4.210;2024-03-08T15:31:05;12.02;54.29
86361;SHT31;77015;51.686;4.210;2024-03-08T15:33:35;12.03;53.96
86361;SHT31;77015;51.686;4.210;2024-03-08T15:36:14;11.98;53.91
86361;SHT31;77015;51.686;4.210;2024-03-08T15:38:41;11.96;52.99
86361;SHT31;77015;51.686;4.210;2024-03-08T15:41:09;11.85;53.70
86361;SHT31;77015;51.686;4.210;2024-03-08T15:43:39;11.86;53.55
86361;SHT31;77015;51.686;4.210;2024-03-08T15:46:06;11.85;53.18
86361;SHT31;77015;51.686;4.210;2024-03-08T15:48:32;11.78;54.17
86361;SHT31;77015;51.686;4.210;2024-03-08T15:50:59;11.83;54.33
86361;SHT31;77015;51.686;4.210;2024-03-08T15:53:30;11.86;55.07
86361;SHT31;77015;51.686;4.210;2024-03-08T15:55:57;11.86;55.47